sensor_id;sensor_type;location;lat;lon;timestamp;P1;durP1;ratioP1;P2;durP2;ratioP2
39654;SDS011;25336;59.944;11.010;2023-02-01T00:02:23;13.30;;;7.82;;
39654;SDS011;25336;59.944;11.010;2023-02-01T00:04:49;13.32;;;7.65;;
39654;SDS011;25336;59.944;11.010;2023-02-01T00:07:14;8.50;;;6.68;;
39654;SDS011;25336;59.944;11.010;2023-02-01T00:09:40;12.13;;;7.68;;
39654;SDS011;25336;59.944;11.010;2023-02-01T00:12:05;14.13;;;6.88;;
39654;SDS011;25336;59.944;11.010;2023-02-01T00:14:31;12.02;;;7.20;;
39654;SDS011;25336;59.944;11.010;2023-02-01T00:17:03;9.45;;;5.90;;
39654;SDS011;25336;59.944;11.010;2023-02-01T00:19:29;7.28;;;5.90;;
39654;SDS011;25336;59.944;11.010;2023-02-01T00:21:55;7.63;;;6.35;;
39654;SDS011;25336;59.944;11.010;2023-02-01T00:24:20;10.07;;;6.78;;
39654;SDS011;25336;59.944;11.010;2023-02-01T00:26:46;14.23;;;8.63;;
39654;SDS011;25336;59.944;11.010;2023-02-01T00:29:13;13.55;;;8.88;;
39654;SDS011;25336;59.944;11.010;2023-02-01T00:31:44;16.52;;;8.35;;
39654;SDS011;25336;59.944;11.010;2023-02-01T00:34:14;14.35;;;8.93;;
39654;SDS011;25336;59.944;11.010;2023-02-01T00:36:41;13.25;;;7.70;;
39654;SDS011;25336;59.944;11.010;2023-02-01T00:39:07;12.60;;;8.25;;
39654;SDS011;25336;59.944;11.010;2023-02-01T00:41:34;13.95;;;8.30;;
39654;SDS011;25336;59.944;11.010;2023-02-01T00:43:59;14.70;;;7.43;;
39654;SDS011;25336;59.944;11.010;2023-02-01T00:46:26;12.38;;;7.40;;
39654;SDS011;25336;59.944;11.010;2023-02-01T00:48:52;10.52;;;6.13;;
39654;SDS011;25336;59.944;11.010;2023-02-01T00:51:19;14.82;;;6.80;;
39654;SDS011;25336;59.944;11.010;2023-02-01T00:53:46;11.18;;;7.10;;
39654;SDS011;25336;59.944;11.010;2023-02-01T00:56:12;11.75;;;7.30;;
39654;SDS011;25336;59.944;11.010;2023-02-01T00:58:38;7.95;;;5.72;;
39654;SDS011;25336;59.944;11.010;2023-02-01T01:03:38;9.68;;;7.72;;
39654;SDS011;25336;59.944;11.010;2023-02-01T01:06:06;13.00;;;7.13;;
39654;SDS011;25336;59.944;11.010;2023-02-01T01:08:34;10.98;;;6.25;;
39654;SDS011;25336;59.944;11.010;2023-02-01T01:11:06;12.05;;;6.43;;
39654;SDS011;25336;59.944;11.010;2023-02-01T01:13:37;8.07;;;6.50;;
39654;SDS011;25336;59.944;11.010;2023-02-01T01:16:04;7.45;;;5.72;;
39654;SDS011;25336;59.944;11.010;2023-02-01T01:18:31;8.35;;;6.13;;
39654;SDS011;25336;59.944;11.010;2023-02-01T01:20:58;6.53;;;5.70;;
39654;SDS011;25336;59.944;11.010;2023-02-01T01:23:24;7.65;;;5.93;;
39654;SDS011;25336;59.944;11.010;2023-02-01T01:25:50;12.70;;;7.20;;
39654;SDS011;25336;59.944;11.010;2023-02-01T01:28:15;7.50;;;6.47;;
39654;SDS011;25336;59.944;11.010;2023-02-01T01:30:41;9.13;;;6.18;;
39654;SDS011;25336;59.944;11.010;2023-02-01T01:33:06;8.90;;;5.68;;
39654;SDS011;25336;59.944;11.010;2023-02-01T01:35:32;9.90;;;6.35;;
39654;SDS011;25336;59.944;11.010;2023-02-01T01:37:59;11.10;;;6.53;;
39654;SDS011;25336;59.944;11.010;2023-02-01T01:40:26;8.65;;;6.95;;
39654;SDS011;25336;59.944;11.010;2023-02-01T01:42:52;7.85;;;6.65;;
39654;SDS011;25336;59.944;11.010;2023-02-01T01:45:29;11.20;;;6.53;;
39654;SDS011;25336;59.944;11.010;2023-02-01T01:50:43;11.80;;;7.53;;
39654;SDS011;25336;59.944;11.010;2023-02-01T01:53:16;14.30;;;8.07;;
39654;SDS011;25336;59.944;11.010;2023-02-01T01:55:47;13.30;;;7.75;;
39654;SDS011;25336;59.944;11.010;2023-02-01T01:58:17;12.90;;;8.80;;
39654;SDS011;25336;59.944;11.010;2023-02-01T02:00:45;12.82;;;7.80;;
39654;SDS011;25336;59.944;11.010;2023-02-01T02:03:13;13.98;;;9.30;;
39654;SDS011;25336;59.944;11.010;2023-02-01T02:05:42;13.68;;;8.98;;
39654;SDS011;25336;59.944;11.010;2023-02-01T02:08:09;12.70;;;8.57;;
39654;SDS011;25336;59.944;11.010;2023-02-01T02:10:36;14.48;;;8.38;;
39654;SDS011;25336;59.944;11.010;2023-02-01T02:13:20;13.57;;;8.60;;
39654;SDS011;25336;59.944;11.010;2023-02-01T02:15:56;16.02;;;9.48;;
39654;SDS011;25336;59.944;11.010;2023-02-01T02:18:36;13.68;;;9.00;;
39654;SDS011;25336;59.944;11.010;2023-02-01T02:24:43;15.65;;;9.23;;
39654;SDS011;25336;59.944;11.010;2023-02-01T02:27:17;9.40;;;6.40;;
39654;SDS011;25336;59.944;11.010;2023-02-01T02:30:02;15.25;;;9.60;;
39654;SDS011;25336;59.944;11.010;2023-02-01T02:33:00;16.45;;;9.05;;
39654;SDS011;25336;59.944;11.010;2023-02-01T02:35:41;11.40;;;9.32;;
39654;SDS011;25336;59.944;11.010;2023-02-01T02:38:32;14.15;;;10.05;;
39654;SDS011;25336;59.944;11.010;2023-02-01T02:41:26;14.88;;;8.63;;
39654;SDS011;25336;59.944;11.010;2023-02-01T02:44:34;16.30;;;8.98;;
39654;SDS011;25336;59.944;11.010;2023-02-01T02:50:40;12.32;;;8.48;;
39654;SDS011;25336;59.944;11.010;2023-02-01T02:53:36;14.63;;;9.05;;
39654;SDS011;25336;59.944;11.010;2023-02-01T02:56:25;9.57;;;6.78;;
39654;SDS011;25336;59.944;11.010;2023-02-01T02:59:11;14.60;;;7.57;;
39654;SDS011;25336;59.944;11.010;2023-02-01T03:01:59;11.68;;;7.40;;
39654;SDS011;25336;59.944;11.010;2023-02-01T03:04:43;14.13;;;8.23;;
39654;SDS011;25336;59.944;11.010;2023-02-01T03:07:13;9.63;;;8.10;;
39654;SDS011;25336;59.944;11.010;2023-02-01T03:09:59;12.23;;;8.32;;
39654;SDS011;25336;59.944;11.010;2023-02-01T03:12:29;11.68;;;7.47;;
39654;SDS011;25336;59.944;11.010;2023-02-01T03:15:17;10.27;;;7.65;;
39654;SDS011;25336;59.944;11.010;2023-02-01T03:17:43;12.10;;;8.38;;
39654;SDS011;25336;59.944;11.010;2023-02-01T03:20:10;11.75;;;8.63;;
39654;SDS011;25336;59.944;11.010;2023-02-01T03:22:39;10.23;;;8.18;;
39654;SDS011;25336;59.944;11.010;2023-02-01T03:25:14;12.20;;;7.45;;
39654;SDS011;25336;59.944;11.010;2023-02-01T03:27:47;14.90;;;8.15;;
39654;SDS011;25336;59.944;11.010;2023-02-01T03:30:20;14.15;;;8.77;;
39654;SDS011;25336;59.944;11.010;2023-02-01T03:32:49;12.35;;;8.77;;
39654;SDS011;25336;59.944;11.010;2023-02-01T03:38:09;12.95;;;8.65;;
39654;SDS011;25336;59.944;11.010;2023-02-01T03:40:45;13.68;;;8.93;;
39654;SDS011;25336;59.944;11.010;2023-02-01T03:43:16;13.40;;;8.68;;
39654;SDS011;25336;59.944;11.010;2023-02-01T03:45:45;13.60;;;8.38;;
39654;SDS011;25336;59.944;11.010;2023-02-01T03:48:14;11.47;;;8.50;;
39654;SDS011;25336;59.944;11.010;2023-02-01T03:50:44;13.02;;;9.70;;
39654;SDS011;25336;59.944;11.010;2023-02-01T03:53:14;14.95;;;9.00;;
39654;SDS011;25336;59.944;11.010;2023-02-01T03:55:44;16.15;;;9.07;;
39654;SDS011;25336;59.944;11.010;2023-02-01T03:58:14;11.50;;;7.95;;
39654;SDS011;25336;59.944;11.010;2023-02-01T04:00:49;12.82;;;8.65;;
39654;SDS011;25336;59.944;11.010;2023-02-01T04:03:19;13.68;;;7.93;;
39654;SDS011;25336;59.944;11.010;2023-02-01T04:05:46;10.57;;;7.78;;
39654;SDS011;25336;59.944;11.010;2023-02-01T04:08:13;11.68;;;7.78;;
39654;SDS011;25336;59.944;11.010;2023-02-01T04:10:38;11.43;;;7.15;;
39654;SDS011;25336;59.944;11.010;2023-02-01T04:13:04;11.70;;;7.68;;
39654;SDS011;25336;59.944;11.010;2023-02-01T04:15:30;10.10;;;7.43;;
39654;SDS011;25336;59.944;11.010;2023-02-01T04:17:55;13.88;;;7.82;;
39654;SDS011;25336;59.944;11.010;2023-02-01T04:20:21;7.57;;;6.47;;
39654;SDS011;25336;59.944;11.010;2023-02-01T04:22:46;9.90;;;7.03;;
39654;SDS011;25336;59.944;11.010;2023-02-01T04:25:12;12.48;;;7.88;;
39654;SDS011;25336;59.944;11.010;2023-02-01T04:27:37;10.93;;;7.35;;
39654;SDS011;25336;59.944;11.010;2023-02-01T04:30:03;9.95;;;8.32;;
39654;SDS011;25336;59.944;11.010;2023-02-01T04:32:29;11.13;;;7.88;;
39654;SDS011;25336;59.944;11.010;2023-02-01T04:34:55;9.35;;;7.50;;
39654;SDS011;25336;59.944;11.010;2023-02-01T04:37:20;11.45;;;7.63;;
39654;SDS011;25336;59.944;11.010;2023-02-01T04:39:46;14.90;;;8.88;;
39654;SDS011;25336;59.944;11.010;2023-02-01T04:42:11;14.40;;;8.63;;
39654;SDS011;25336;59.944;11.010;2023-02-01T04:44:37;11.52;;;8.32;;
39654;SDS011;25336;59.944;11.010;2023-02-01T04:47:04;18.65;;;9.38;;
39654;SDS011;25336;59.944;11.010;2023-02-01T04:49:30;11.48;;;8.82;;
39654;SDS011;25336;59.944;11.010;2023-02-01T04:51:56;14.23;;;10.25;;
39654;SDS011;25336;59.944;11.010;2023-02-01T04:54:21;13.57;;;8.38;;
39654;SDS011;25336;59.944;11.010;2023-02-01T04:56:47;12.95;;;9.23;;
39654;SDS011;25336;59.944;11.010;2023-02-01T04:59:12;11.52;;;8.85;;
39654;SDS011;25336;59.944;11.010;2023-02-01T05:01:38;15.40;;;11.23;;
39654;SDS011;25336;59.944;11.010;2023-02-01T05:04:04;19.63;;;9.30;;
39654;SDS011;25336;59.944;11.010;2023-02-01T05:06:29;12.68;;;10.18;;
39654;SDS011;25336;59.944;11.010;2023-02-01T05:08:55;12.35;;;9.15;;
39654;SDS011;25336;59.944;11.010;2023-02-01T05:11:20;15.95;;;9.68;;
39654;SDS011;25336;59.944;11.010;2023-02-01T05:14:05;11.98;;;10.05;;
39654;SDS011;25336;59.944;11.010;2023-02-01T05:16:30;13.80;;;10.20;;
39654;SDS011;25336;59.944;11.010;2023-02-01T05:18:56;16.92;;;10.68;;
39654;SDS011;25336;59.944;11.010;2023-02-01T05:21:21;15.35;;;10.65;;
39654;SDS011;25336;59.944;11.010;2023-02-01T05:23:47;15.07;;;10.70;;
39654;SDS011;25336;59.944;11.010;2023-02-01T05:26:31;15.20;;;10.95;;
39654;SDS011;25336;59.944;11.010;2023-02-01T05:28:57;14.02;;;10.32;;
39654;SDS011;25336;59.944;11.010;2023-02-01T05:31:23;14.20;;;10.55;;
39654;SDS011;25336;59.944;11.010;2023-02-01T05:33:49;13.13;;;9.73;;
39654;SDS011;25336;59.944;11.010;2023-02-01T05:36:15;12.43;;;8.32;;
39654;SDS011;25336;59.944;11.010;2023-02-01T05:38:40;11.40;;;7.72;;
39654;SDS011;25336;59.944;11.010;2023-02-01T05:41:06;11.10;;;7.65;;
39654;SDS011;25336;59.944;11.010;2023-02-01T05:43:32;10.02;;;7.65;;
39654;SDS011;25336;59.944;11.010;2023-02-01T05:45:58;10.88;;;7.53;;
39654;SDS011;25336;59.944;11.010;2023-02-01T05:48:24;10.48;;;7.68;;
39654;SDS011;25336;59.944;11.010;2023-02-01T05:50:50;11.55;;;7.53;;
39654;SDS011;25336;59.944;11.010;2023-02-01T05:53:15;9.57;;;7.60;;
39654;SDS011;25336;59.944;11.010;2023-02-01T05:55:41;13.35;;;8.32;;
39654;SDS011;25336;59.944;11.010;2023-02-01T05:58:07;12.20;;;8.80;;
39654;SDS011;25336;59.944;11.010;2023-02-01T06:00:32;12.82;;;8.13;;
39654;SDS011;25336;59.944;11.010;2023-02-01T06:02:58;14.93;;;10.35;;
39654;SDS011;25336;59.944;11.010;2023-02-01T06:05:24;14.05;;;9.20;;
39654;SDS011;25336;59.944;11.010;2023-02-01T06:07:50;13.57;;;10.13;;
39654;SDS011;25336;59.944;11.010;2023-02-01T06:10:16;17.55;;;10.60;;
39654;SDS011;25336;59.944;11.010;2023-02-01T06:12:43;18.70;;;12.48;;
39654;SDS011;25336;59.944;11.010;2023-02-01T06:15:09;18.92;;;12.25;;
39654;SDS011;25336;59.944;11.010;2023-02-01T06:17:36;19.83;;;12.73;;
39654;SDS011;25336;59.944;11.010;2023-02-01T06:20:02;20.88;;;12.50;;
39654;SDS011;25336;59.944;11.010;2023-02-01T06:22:28;21.85;;;12.73;;
39654;SDS011;25336;59.944;11.010;2023-02-01T06:24:53;19.52;;;11.68;;
39654;SDS011;25336;59.944;11.010;2023-02-01T06:27:19;21.50;;;12.60;;
39654;SDS011;25336;59.944;11.010;2023-02-01T06:29:45;17.88;;;12.05;;
39654;SDS011;25336;59.944;11.010;2023-02-01T06:32:10;19.25;;;11.52;;
39654;SDS011;25336;59.944;11.010;2023-02-01T06:34:36;20.35;;;12.65;;
39654;SDS011;25336;59.944;11.010;2023-02-01T06:37:02;17.83;;;11.38;;
39654;SDS011;25336;59.944;11.010;2023-02-01T06:39:27;16.23;;;10.77;;
39654;SDS011;25336;59.944;11.010;2023-02-01T06:41:53;14.40;;;10.50;;
39654;SDS011;25336;59.944;11.010;2023-02-01T06:44:18;15.70;;;11.18;;
39654;SDS011;25336;59.944;11.010;2023-02-01T06:46:45;17.98;;;12.23;;
39654;SDS011;25336;59.944;11.010;2023-02-01T06:49:11;15.80;;;10.90;;
39654;SDS011;25336;59.944;11.010;2023-02-01T06:51:36;19.33;;;11.40;;
39654;SDS011;25336;59.944;11.010;2023-02-01T06:54:02;13.65;;;10.18;;
39654;SDS011;25336;59.944;11.010;2023-02-01T06:56:28;16.40;;;10.98;;
39654;SDS011;25336;59.944;11.010;2023-02-01T06:58:53;13.82;;;10.32;;
39654;SDS011;25336;59.944;11.010;2023-02-01T07:01:19;14.35;;;9.52;;
39654;SDS011;25336;59.944;11.010;2023-02-01T07:03:48;15.57;;;11.18;;
39654;SDS011;25336;59.944;11.010;2023-02-01T07:06:16;14.63;;;7.07;;
39654;SDS011;25336;59.944;11.010;2023-02-01T07:08:42;14.25;;;10.00;;
39654;SDS011;25336;59.944;11.010;2023-02-01T07:11:10;12.93;;;9.80;;
39654;SDS011;25336;59.944;11.010;2023-02-01T07:13:37;14.43;;;9.25;;
39654;SDS011;25336;59.944;11.010;2023-02-01T07:16:08;13.13;;;8.57;;
39654;SDS011;25336;59.944;11.010;2023-02-01T07:18:36;13.90;;;8.20;;
39654;SDS011;25336;59.944;11.010;2023-02-01T07:21:01;10.63;;;7.38;;
39654;SDS011;25336;59.944;11.010;2023-02-01T07:23:27;16.00;;;8.18;;
39654;SDS011;25336;59.944;11.010;2023-02-01T07:25:54;11.65;;;7.72;;
39654;SDS011;25336;59.944;11.010;2023-02-01T07:28:24;10.45;;;6.60;;
39654;SDS011;25336;59.944;11.010;2023-02-01T07:30:50;10.07;;;7.18;;
39654;SDS011;25336;59.944;11.010;2023-02-01T07:33:20;9.65;;;6.97;;
39654;SDS011;25336;59.944;11.010;2023-02-01T07:35:47;8.30;;;5.25;;
39654;SDS011;25336;59.944;11.010;2023-02-01T07:38:13;6.07;;;5.28;;
39654;SDS011;25336;59.944;11.010;2023-02-01T07:40:39;8.68;;;6.43;;
39654;SDS011;25336;59.944;11.010;2023-02-01T07:43:05;9.52;;;4.32;;
39654;SDS011;25336;59.944;11.010;2023-02-01T07:45:32;4.68;;;4.18;;
39654;SDS011;25336;59.944;11.010;2023-02-01T07:47:58;4.60;;;4.05;;
39654;SDS011;25336;59.944;11.010;2023-02-01T07:50:24;5.68;;;4.07;;
39654;SDS011;25336;59.944;11.010;2023-02-01T07:52:49;7.15;;;3.97;;
39654;SDS011;25336;59.944;11.010;2023-02-01T07:55:15;4.13;;;3.72;;
39654;SDS011;25336;59.944;11.010;2023-02-01T07:57:40;3.97;;;3.45;;
39654;SDS011;25336;59.944;11.010;2023-02-01T08:00:07;3.75;;;3.33;;
39654;SDS011;25336;59.944;11.010;2023-02-01T08:02:52;4.40;;;3.85;;
39654;SDS011;25336;59.944;11.010;2023-02-01T08:05:18;8.02;;;4.57;;
39654;SDS011;25336;59.944;11.010;2023-02-01T08:07:43;10.10;;;5.32;;
39654;SDS011;25336;59.944;11.010;2023-02-01T08:10:09;5.53;;;4.30;;
39654;SDS011;25336;59.944;11.010;2023-02-01T08:12:36;6.43;;;4.90;;
39654;SDS011;25336;59.944;11.010;2023-02-01T08:15:02;5.00;;;4.20;;
39654;SDS011;25336;59.944;11.010;2023-02-01T08:17:29;6.28;;;4.75;;
39654;SDS011;25336;59.944;11.010;2023-02-01T08:19:55;6.88;;;4.45;;
39654;SDS011;25336;59.944;11.010;2023-02-01T08:22:20;4.78;;;4.22;;
39654;SDS011;25336;59.944;11.010;2023-02-01T08:24:49;6.85;;;4.88;;
39654;SDS011;25336;59.944;11.010;2023-02-01T08:27:15;6.07;;;4.43;;
39654;SDS011;25336;59.944;11.010;2023-02-01T08:29:41;6.75;;;4.32;;
39654;SDS011;25336;59.944;11.010;2023-02-01T08:32:06;6.18;;;4.22;;
39654;SDS011;25336;59.944;11.010;2023-02-01T08:34:32;7.00;;;4.07;;
39654;SDS011;25336;59.944;11.010;2023-02-01T08:36:57;4.80;;;4.20;;
39654;SDS011;25336;59.944;11.010;2023-02-01T08:39:23;6.78;;;5.07;;
39654;SDS011;25336;59.944;11.010;2023-02-01T08:41:50;5.18;;;4.25;;
39654;SDS011;25336;59.944;11.010;2023-02-01T08:44:34;8.57;;;4.55;;
39654;SDS011;25336;59.944;11.010;2023-02-01T08:47:00;6.45;;;4.78;;
39654;SDS011;25336;59.944;11.010;2023-02-01T08:49:26;7.95;;;4.47;;
39654;SDS011;25336;59.944;11.010;2023-02-01T08:51:51;9.48;;;5.03;;
39654;SDS011;25336;59.944;11.010;2023-02-01T08:54:17;11.10;;;5.82;;
39654;SDS011;25336;59.944;11.010;2023-02-01T08:56:42;6.53;;;5.63;;
39654;SDS011;25336;59.944;11.010;2023-02-01T08:59:08;8.52;;;5.47;;
39654;SDS011;25336;59.944;11.010;2023-02-01T09:01:33;5.93;;;4.85;;
39654;SDS011;25336;59.944;11.010;2023-02-01T09:03:59;9.13;;;5.10;;
39654;SDS011;25336;59.944;11.010;2023-02-01T09:06:25;7.38;;;4.47;;
39654;SDS011;25336;59.944;11.010;2023-02-01T09:08:50;6.50;;;5.03;;
39654;SDS011;25336;59.944;11.010;2023-02-01T09:11:16;6.65;;;4.57;;
39654;SDS011;25336;59.944;11.010;2023-02-01T09:13:44;4.85;;;3.53;;
39654;SDS011;25336;59.944;11.010;2023-02-01T09:16:10;6.20;;;4.78;;
39654;SDS011;25336;59.944;11.010;2023-02-01T09:18:35;7.03;;;4.63;;
39654;SDS011;25336;59.944;11.010;2023-02-01T09:21:07;6.07;;;4.63;;
39654;SDS011;25336;59.944;11.010;2023-02-01T09:23:33;4.13;;;3.70;;
39654;SDS011;25336;59.944;11.010;2023-02-01T09:26:03;5.35;;;4.35;;
39654;SDS011;25336;59.944;11.010;2023-02-01T09:28:29;4.70;;;4.03;;
39654;SDS011;25336;59.944;11.010;2023-02-01T09:30:56;4.43;;;4.03;;
39654;SDS011;25336;59.944;11.010;2023-02-01T09:33:22;6.28;;;4.10;;
39654;SDS011;25336;59.944;11.010;2023-02-01T09:35:58;6.10;;;5.13;;
39654;SDS011;25336;59.944;11.010;2023-02-01T09:38:28;4.20;;;3.45;;
39654;SDS011;25336;59.944;11.010;2023-02-01T09:40:54;6.25;;;3.80;;
39654;SDS011;25336;59.944;11.010;2023-02-01T09:46:30;8.30;;;4.75;;
39654;SDS011;25336;59.944;11.010;2023-02-01T09:48:59;5.07;;;3.63;;
39654;SDS011;25336;59.944;11.010;2023-02-01T09:51:38;6.80;;;3.85;;
39654;SDS011;25336;59.944;11.010;2023-02-01T09:54:09;8.98;;;4.25;;
39654;SDS011;25336;59.944;11.010;2023-02-01T09:56:52;4.53;;;3.55;;
39654;SDS011;25336;59.944;11.010;2023-02-01T10:02:03;7.57;;;4.47;;
39654;SDS011;25336;59.944;11.010;2023-02-01T10:04:35;4.88;;;3.80;;
39654;SDS011;25336;59.944;11.010;2023-02-01T10:10:01;5.45;;;3.63;;
39654;SDS011;25336;59.944;11.010;2023-02-01T10:12:54;7.25;;;4.45;;
39654;SDS011;25336;59.944;11.010;2023-02-01T10:21:04;6.18;;;3.90;;
39654;SDS011;25336;59.944;11.010;2023-02-01T10:26:19;6.05;;;4.28;;
39654;SDS011;25336;59.944;11.010;2023-02-01T10:28:51;5.18;;;4.47;;
39654;SDS011;25336;59.944;11.010;2023-02-01T10:31:21;4.70;;;3.40;;
39654;SDS011;25336;59.944;11.010;2023-02-01T10:33:58;6.13;;;4.28;;
39654;SDS011;25336;59.944;11.010;2023-02-01T10:36:29;5.13;;;3.95;;
39654;SDS011;25336;59.944;11.010;2023-02-01T10:39:00;8.55;;;4.55;;
39654;SDS011;25336;59.944;11.010;2023-02-01T10:41:35;8.73;;;3.65;;
39654;SDS011;25336;59.944;11.010;2023-02-01T10:44:04;7.22;;;4.10;;
39654;SDS011;25336;59.944;11.010;2023-02-01T10:46:34;6.00;;;4.15;;
39654;SDS011;25336;59.944;11.010;2023-02-01T10:49:00;5.18;;;3.65;;
39654;SDS011;25336;59.944;11.010;2023-02-01T10:54:19;8.27;;;4.50;;
39654;SDS011;25336;59.944;11.010;2023-02-01T10:56:47;6.35;;;4.18;;
39654;SDS011;25336;59.944;11.010;2023-02-01T10:59:18;8.30;;;4.68;;
39654;SDS011;25336;59.944;11.010;2023-02-01T11:01:48;8.60;;;4.00;;
39654;SDS011;25336;59.944;11.010;2023-02-01T11:04:15;5.53;;;3.78;;
39654;SDS011;25336;59.944;11.010;2023-02-01T11:06:46;4.38;;;3.42;;
39654;SDS011;25336;59.944;11.010;2023-02-01T11:09:18;5.20;;;4.30;;
39654;SDS011;25336;59.944;11.010;2023-02-01T11:14:19;5.93;;;4.75;;
39654;SDS011;25336;59.944;11.010;2023-02-01T11:16:58;7.40;;;4.43;;
39654;SDS011;25336;59.944;11.010;2023-02-01T11:19:25;5.78;;;4.00;;
39654;SDS011;25336;59.944;11.010;2023-02-01T11:21:51;8.73;;;4.90;;
39654;SDS011;25336;59.944;11.010;2023-02-01T11:24:23;10.40;;;4.82;;
39654;SDS011;25336;59.944;11.010;2023-02-01T11:26:56;4.70;;;4.20;;
39654;SDS011;25336;59.944;11.010;2023-02-01T11:29:23;6.55;;;3.75;;
39654;SDS011;25336;59.944;11.010;2023-02-01T11:31:55;5.38;;;4.55;;
39654;SDS011;25336;59.944;11.010;2023-02-01T11:34:24;8.82;;;4.97;;
39654;SDS011;25336;59.944;11.010;2023-02-01T11:36:58;9.18;;;3.90;;
39654;SDS011;25336;59.944;11.010;2023-02-01T11:39:32;6.30;;;3.78;;
39654;SDS011;25336;59.944;11.010;2023-02-01T11:42:15;4.10;;;3.53;;
39654;SDS011;25336;59.944;11.010;2023-02-01T11:44:43;3.80;;;2.90;;
39654;SDS011;25336;59.944;11.010;2023-02-01T11:47:29;4.47;;;3.00;;
39654;SDS011;25336;59.944;11.010;2023-02-01T11:50:05;3.25;;;2.90;;
39654;SDS011;25336;59.944;11.010;2023-02-01T11:55:49;3.13;;;2.83;;
39654;SDS011;25336;59.944;11.010;2023-02-01T12:01:32;5.63;;;3.50;;
39654;SDS011;25336;59.944;11.010;2023-02-01T12:17:27;3.33;;;2.35;;
39654;SDS011;25336;59.944;11.010;2023-02-01T12:23:00;4.05;;;2.88;;
39654;SDS011;25336;59.944;11.010;2023-02-01T12:39:39;3.60;;;2.22;;
39654;SDS011;25336;59.944;11.010;2023-02-01T12:42:19;3.53;;;2.10;;
39654;SDS011;25336;59.944;11.010;2023-02-01T12:44:56;2.25;;;1.95;;
39654;SDS011;25336;59.944;11.010;2023-02-01T12:50:22;2.45;;;2.13;;
39654;SDS011;25336;59.944;11.010;2023-02-01T12:52:58;3.38;;;2.00;;
39654;SDS011;25336;59.944;11.010;2023-02-01T12:55:35;1.80;;;1.70;;
39654;SDS011;25336;59.944;11.010;2023-02-01T12:58:14;1.92;;;1.70;;
39654;SDS011;25336;59.944;11.010;2023-02-01T13:01:01;3.45;;;2.25;;
39654;SDS011;25336;59.944;11.010;2023-02-01T13:04:03;3.35;;;2.08;;
39654;SDS011;25336;59.944;11.010;2023-02-01T13:06:44;5.15;;;1.50;;
39654;SDS011;25336;59.944;11.010;2023-02-01T13:09:23;2.97;;;1.98;;
39654;SDS011;25336;59.944;11.010;2023-02-01T13:12:15;2.38;;;1.80;;
39654;SDS011;25336;59.944;11.010;2023-02-01T13:15:02;1.95;;;1.80;;
39654;SDS011;25336;59.944;11.010;2023-02-01T13:17:29;2.60;;;1.70;;
39654;SDS011;25336;59.944;11.010;2023-02-01T13:20:13;2.53;;;1.48;;
39654;SDS011;25336;59.944;11.010;2023-02-01T13:23:04;2.85;;;1.50;;
39654;SDS011;25336;59.944;11.010;2023-02-01T13:25:43;5.65;;;2.58;;
39654;SDS011;25336;59.944;11.010;2023-02-01T13:28:25;2.22;;;1.40;;
39654;SDS011;25336;59.944;11.010;2023-02-01T13:41:50;5.25;;;1.73;;
39654;SDS011;25336;59.944;11.010;2023-02-01T13:44:30;4.05;;;1.75;;
39654;SDS011;25336;59.944;11.010;2023-02-01T13:47:02;1.90;;;1.80;;
39654;SDS011;25336;59.944;11.010;2023-02-01T13:49:39;3.28;;;2.03;;
39654;SDS011;25336;59.944;11.010;2023-02-01T13:52:06;3.00;;;1.80;;
39654;SDS011;25336;59.944;11.010;2023-02-01T13:54:46;1.50;;;1.40;;
39654;SDS011;25336;59.944;11.010;2023-02-01T14:03:14;3.88;;;1.65;;
39654;SDS011;25336;59.944;11.010;2023-02-01T14:08:13;1.75;;;1.65;;
39654;SDS011;25336;59.944;11.010;2023-02-01T14:10:49;2.30;;;1.38;;
39654;SDS011;25336;59.944;11.010;2023-02-01T14:34:17;2.10;;;1.75;;
39654;SDS011;25336;59.944;11.010;2023-02-01T14:36:50;2.53;;;1.52;;
39654;SDS011;25336;59.944;11.010;2023-02-01T14:41:52;1.38;;;1.27;;
39654;SDS011;25336;59.944;11.010;2023-02-01T14:44:28;1.23;;;1.10;;
39654;SDS011;25336;59.944;11.010;2023-02-01T14:47:05;2.03;;;1.50;;
39654;SDS011;25336;59.944;11.010;2023-02-01T14:49:39;1.80;;;1.63;;
39654;SDS011;25336;59.944;11.010;2023-02-01T14:52:16;1.48;;;1.38;;
39654;SDS011;25336;59.944;11.010;2023-02-01T14:54:45;2.08;;;1.73;;
39654;SDS011;25336;59.944;11.010;2023-02-01T14:57:20;2.28;;;1.70;;
39654;SDS011;25336;59.944;11.010;2023-02-01T15:02:23;3.20;;;1.95;;
39654;SDS011;25336;59.944;11.010;2023-02-01T15:04:54;2.05;;;1.85;;
39654;SDS011;25336;59.944;11.010;2023-02-01T15:07:21;2.92;;;2.05;;
39654;SDS011;25336;59.944;11.010;2023-02-01T15:09:49;3.63;;;2.55;;
39654;SDS011;25336;59.944;11.010;2023-02-01T15:12:16;4.10;;;3.05;;
39654;SDS011;25336;59.944;11.010;2023-02-01T15:14:48;3.05;;;2.13;;
39654;SDS011;25336;59.944;11.010;2023-02-01T15:17:36;4.75;;;3.55;;
39654;SDS011;25336;59.944;11.010;2023-02-01T15:20:15;7.90;;;4.65;;
39654;SDS011;25336;59.944;11.010;2023-02-01T15:22:51;5.03;;;3.22;;
39654;SDS011;25336;59.944;11.010;2023-02-01T15:25:26;4.30;;;2.72;;
39654;SDS011;25336;59.944;11.010;2023-02-01T15:27:54;5.35;;;3.42;;
39654;SDS011;25336;59.944;11.010;2023-02-01T15:30:21;3.25;;;2.15;;
39654;SDS011;25336;59.944;11.010;2023-02-01T15:32:50;3.15;;;2.10;;
39654;SDS011;25336;59.944;11.010;2023-02-01T15:38:28;1.88;;;1.73;;
39654;SDS011;25336;59.944;11.010;2023-02-01T15:43:38;2.55;;;1.77;;
39654;SDS011;25336;59.944;11.010;2023-02-01T15:46:07;2.08;;;1.75;;
39654;SDS011;25336;59.944;11.010;2023-02-01T15:48:41;2.40;;;1.83;;
39654;SDS011;25336;59.944;11.010;2023-02-01T15:51:19;2.58;;;2.10;;
39654;SDS011;25336;59.944;11.010;2023-02-01T15:53:57;1.80;;;1.70;;
39654;SDS011;25336;59.944;11.010;2023-02-01T15:56:33;5.95;;;3.20;;
39654;SDS011;25336;59.944;11.010;2023-02-01T15:59:01;4.18;;;2.28;;
39654;SDS011;25336;59.944;11.010;2023-02-01T16:01:29;2.47;;;2.05;;
39654;SDS011;25336;59.944;11.010;2023-02-01T16:04:29;4.93;;;2.25;;
39654;SDS011;25336;59.944;11.010;2023-02-01T16:06:52;4.43;;;2.30;;
39654;SDS011;25336;59.944;11.010;2023-02-01T16:09:21;2.72;;;2.30;;
39654;SDS011;25336;59.944;11.010;2023-02-01T16:11:54;4.95;;;2.55;;
39654;SDS011;25336;59.944;11.010;2023-02-01T16:14:22;4.50;;;3.20;;
39654;SDS011;25336;59.944;11.010;2023-02-01T16:16:48;5.53;;;4.30;;
39654;SDS011;25336;59.944;11.010;2023-02-01T16:19:15;9.63;;;5.10;;
39654;SDS011;25336;59.944;11.010;2023-02-01T16:21:40;7.50;;;4.57;;
39654;SDS011;25336;59.944;11.010;2023-02-01T16:24:06;8.30;;;4.22;;
39654;SDS011;25336;59.944;11.010;2023-02-01T16:26:32;8.02;;;4.40;;
39654;SDS011;25336;59.944;11.010;2023-02-01T16:28:59;5.50;;;4.10;;
39654;SDS011;25336;59.944;11.010;2023-02-01T16:31:28;4.30;;;3.80;;
39654;SDS011;25336;59.944;11.010;2023-02-01T16:33:56;6.20;;;4.25;;
39654;SDS011;25336;59.944;11.010;2023-02-01T16:36:22;7.97;;;5.47;;
39654;SDS011;25336;59.944;11.010;2023-02-01T16:38:49;8.50;;;5.35;;
39654;SDS011;25336;59.944;11.010;2023-02-01T16:41:18;6.40;;;5.30;;
39654;SDS011;25336;59.944;11.010;2023-02-01T16:43:44;9.95;;;6.93;;
39654;SDS011;25336;59.944;11.010;2023-02-01T16:46:17;10.52;;;6.35;;
39654;SDS011;25336;59.944;11.010;2023-02-01T16:48:50;8.77;;;6.03;;
39654;SDS011;25336;59.944;11.010;2023-02-01T16:51:21;10.60;;;6.80;;
39654;SDS011;25336;59.944;11.010;2023-02-01T16:53:49;11.23;;;6.45;;
39654;SDS011;25336;59.944;11.010;2023-02-01T16:56:16;10.75;;;5.78;;